Time;durP1;ratioP1;P1;durP2;ratioP2;P2;SDS_P1;SDS_P2;PMS_P1;PMS_P2;Temp;Humidity;BMP_temperature;BMP_pressure;BME280_temperature;BME280_humidity;BME280_pressure;Samples;Min_cycle;Max_cycle;Signal;HPM_P1;HPM_P2
2022/04/14 00:01:45;;;;;;;6.13;4.60;;;;;;;17.81;38.44;93288.69;4968307;28;20400;-88
2022/04/14 00:04:10;;;;;;;5.35;4.43;;;;;;;17.81;38.33;93286.72;4964260;28;20049;-89
2022/04/14 00:06:36;;;;;;;4.78;4.28;;;;;;;17.81;38.34;93278.50;4977008;28;20052;-88
2022/04/14 00:09:01;;;;;;;5.00;4.35;;;;;;;17.79;38.32;93278.28;4991779;28;20030;-88
2022/04/14 00:11:27;;;;;;;4.63;4.13;;;;;;;17.82;38.27;93281.97;4980035;28;20037;-91
2022/04/14 00:13:54;;;;;;;4.95;3.97;;;;;;;17.80;38.46;93284.47;4980502;28;20033;-90
2022/04/14 00:16:19;;;;;;;4.90;4.15;;;;;;;17.80;38.27;93281.75;4979515;28;20029;-91
2022/04/14 00:18:46;;;;;;;4.93;4.15;;;;;;;17.79;37.88;93286.47;4980387;28;20022;-88
2022/04/14 00:21:11;;;;;;;4.75;4.13;;;;;;;17.78;38.43;93281.50;4987803;28;20053;-88
2022/04/14 00:23:36;;;;;;;6.05;4.00;;;;;;;17.79;38.27;93283.00;4981666;28;20030;-88
2022/04/14 00:26:02;;;;;;;4.80;4.03;;;;;;;17.81;38.42;93285.97;4980512;28;20042;-92
2022/04/14 00:28:27;;;;;;;5.45;4.10;;;;;;;17.79;38.02;93283.00;4995616;28;20523;-87
2022/04/14 00:30:53;;;;;;;5.07;3.65;;;;;;;17.77;38.60;93282.75;4995688;28;20199;-88
2022/04/14 00:33:18;;;;;;;4.55;4.10;;;;;;;17.78;38.32;93287.72;4984709;28;20619;-89
2022/04/14 00:35:44;;;;;;;4.88;3.97;;;;;;;17.78;38.29;93276.78;4960517;28;20114;-91
2022/04/14 00:38:09;;;;;;;5.63;4.30;;;;;;;17.77;38.26;93283.50;4959878;28;20046;-91
2022/04/14 00:40:35;;;;;;;5.40;4.30;;;;;;;17.78;38.27;93279.53;4960177;28;20037;-88
2022/04/14 00:43:00;;;;;;;4.57;4.00;;;;;;;17.77;38.19;93283.50;4976923;28;20485;-89
2022/04/14 00:45:25;;;;;;;5.05;4.10;;;;;;;17.76;38.34;93281.28;4992072;28;20389;-91
2022/04/14 00:47:51;;;;;;;5.10;4.15;;;;;;;17.77;38.11;93286.25;4978562;28;20452;-88
2022/04/14 00:50:16;;;;;;;6.07;3.92;;;;;;;17.78;38.13;93293.19;4979141;28;20026;-89
2022/04/14 00:52:45;;;;;;;6.03;4.10;;;;;;;17.76;38.29;93289.47;4996108;28;20104;-88
2022/04/14 00:55:12;;;;;;;4.45;3.72;;;;;;;17.76;38.33;93286.75;4995773;28;20124;-89
2022/04/14 00:57:37;;;;;;;4.15;3.75;;;;;;;17.77;38.03;93280.03;4991059;28;20041;-88
2022/04/14 01:00:03;;;;;;;5.80;3.90;;;;;;;17.75;37.97;93283.28;4976108;28;20036;-89
2022/04/14 01:02:28;;;;;;;4.50;4.07;;;;;;;17.75;37.93;93285.28;4976086;28;20176;-89
2022/04/14 01:04:54;;;;;;;4.63;3.83;;;;;;;17.76;38.05;93275.81;4992234;28;20053;-90
2022/04/14 01:07:19;;;;;;;3.92;3.42;;;;;;;17.76;38.17;93279.28;4974927;28;20041;-88
2022/04/14 01:09:46;;;;;;;4.97;3.60;;;;;;;17.75;38.31;93279.81;4977288;28;20037;-88
2022/04/14 01:12:11;;;;;;;5.07;3.78;;;;;;;17.75;38.17;93277.81;4978891;28;20565;-89
2022/04/14 01:14:37;;;;;;;4.25;3.85;;;;;;;17.75;38.08;93283.28;4996304;28;20037;-88
2022/04/14 01:17:04;;;;;;;4.40;4.00;;;;;;;17.74;38.09;93278.34;4974608;28;20386;-89
2022/04/14 01:19:30;;;;;;;4.35;3.50;;;;;;;17.74;38.08;93281.06;4960089;28;20456;-88
2022/04/14 01:22:16;;;;;;;4.65;4.10;;;;;;;17.73;38.43;93280.34;4964198;28;20030;-89
2022/04/14 01:24:42;;;;;;;4.25;3.33;;;;;;;17.74;38.13;93278.34;4991676;28;20045;-88
2022/04/14 01:27:08;;;;;;;4.53;3.80;;;;;;;17.74;38.37;93281.06;4974878;28;20038;-89
2022/04/14 01:29:33;;;;;;;4.75;3.65;;;;;;;17.73;37.91;93277.59;4959862;28;20574;-89
2022/04/14 01:31:59;;;;;;;4.18;3.25;;;;;;;17.72;38.04;93286.31;4982250;28;20026;-92
2022/04/14 01:34:24;;;;;;;3.97;3.47;;;;;;;17.73;38.37;93279.59;4978679;28;20037;-89
2022/04/14 01:36:50;;;;;;;5.05;3.75;;;;;;;17.72;38.26;93286.31;4994174;28;20440;-88
2022/04/14 01:39:15;;;;;;;5.18;3.65;;;;;;;17.72;38.25;93281.59;5009748;28;20056;-89
2022/04/14 01:41:41;;;;;;;4.25;3.50;;;;;;;17.73;38.11;93280.34;4980939;28;20025;-88
2022/04/14 01:44:07;;;;;;;4.45;3.53;;;;;;;17.74;37.99;93281.81;4962515;28;20098;-88
2022/04/14 01:46:32;;;;;;;8.18;4.05;;;;;;;17.71;37.86;93284.81;4978269;28;20048;-88
2022/04/14 01:48:59;;;;;;;4.90;3.42;;;;;;;17.71;38.06;93284.81;4994838;28;20048;-88
2022/04/14 01:51:26;;;;;;;3.75;3.20;;;;;;;17.72;38.32;93284.31;4978470;28;20045;-89
2022/04/14 01:53:52;;;;;;;3.38;3.08;;;;;;;17.71;38.05;93268.41;4978819;28;20116;-88
2022/04/14 01:56:18;;;;;;;3.88;3.45;;;;;;;17.71;37.94;93271.88;4993510;28;20033;-88
2022/04/14 01:58:46;;;;;;;4.07;3.40;;;;;;;17.71;38.18;93271.16;4994019;28;20057;-88
2022/04/14 02:01:12;;;;;;;4.70;3.53;;;;;;;17.71;38.21;93276.63;4977765;28;20034;-90
2022/04/14 02:03:38;;;;;;;4.38;3.42;;;;;;;17.70;37.84;93280.59;4994973;28;20041;-89
2022/04/14 02:06:03;;;;;;;3.33;3.03;;;;;;;17.69;38.14;93277.13;4976303;28;20033;-88
2022/04/14 02:08:28;;;;;;;4.13;3.63;;;;;;;17.69;38.14;93276.38;4977242;28;20025;-89
2022/04/14 02:10:54;;;;;;;3.97;3.35;;;;;;;17.69;38.11;93276.38;4978569;28;20033;-87
2022/04/14 02:13:19;;;;;;;3.53;3.22;;;;;;;17.69;37.92;93274.38;4993492;28;20492;-88
2022/04/14 02:15:45;;;;;;;4.18;3.50;;;;;;;17.69;38.02;93266.19;4994584;28;20075;-92
2022/04/14 02:18:10;;;;;;;3.80;2.75;;;;;;;17.67;38.06;93267.94;4977019;28;20385;-88
2022/04/14 02:20:36;;;;;;;4.63;3.53;;;;;;;17.67;38.12;93268.69;4974752;28;20448;-90
2022/04/14 02:23:01;;;;;;;3.67;3.10;;;;;;;17.68;38.05;93264.72;4974888;28;20038;-89
2022/04/14 02:25:26;;;;;;;5.13;3.45;;;;;;;17.69;38.01;93268.19;4974631;28;20034;-88
2022/04/14 02:27:52;;;;;;;3.30;3.00;;;;;;;17.67;37.85;93263.22;4970794;28;20068;-88
2022/04/14 02:30:17;;;;;;;3.35;3.05;;;;;;;17.69;38.07;93268.19;4977225;28;20427;-89
2022/04/14 02:32:43;;;;;;;4.78;3.55;;;;;;;17.67;38.13;93265.97;4969348;28;20377;-90
2022/04/14 02:35:09;;;;;;;3.70;3.30;;;;;;;17.67;37.89;93260.50;4958437;28;20576;-89
2022/04/14 02:37:35;;;;;;;4.03;3.63;;;;;;;17.65;37.95;93265.72;4973895;28;20393;-88
2022/04/14 02:40:01;;;;;;;4.25;3.35;;;;;;;17.66;37.89;93275.41;4975319;28;20121;-88
2022/04/14 02:42:27;;;;;;;3.40;3.08;;;;;;;17.67;38.24;93276.16;4993955;28;20030;-88
2022/04/14 02:44:52;;;;;;;3.47;3.17;;;;;;;17.66;37.97;93275.41;4977245;28;20057;-88
2022/04/14 02:47:18;;;;;;;4.45;2.92;;;;;;;17.65;38.08;93276.66;4976825;28;20041;-89
2022/04/14 02:49:43;;;;;;;3.83;3.42;;;;;;;17.64;38.02;93280.63;4993873;28;20036;-88
2022/04/14 02:52:08;;;;;;;3.33;3.03;;;;;;;17.65;37.96;93275.91;4994100;28;20037;-91
2022/04/14 02:54:37;;;;;;;4.47;3.33;;;;;;;17.64;38.06;93277.91;4994484;28;20091;-89
2022/04/14 02:57:05;;;;;;;4.30;3.03;;;;;;;17.66;37.83;93288.34;4988426;28;20036;-88
2022/04/14 02:59:31;;;;;;;4.00;3.05;;;;;;;17.64;38.17;93288.06;4978256;28;20413;-88
2022/04/14 03:01:56;;;;;;;4.88;3.33;;;;;;;17.65;37.88;93290.31;4978452;28;20030;-89
2022/04/14 03:04:21;;;;;;;3.92;3.30;;;;;;;17.65;38.07;93290.31;4978207;28;20069;-88
2022/04/14 03:06:47;;;;;;;2.85;2.53;;;;;;;17.63;38.18;93298.25;4978596;28;20096;-88
2022/04/14 03:09:12;;;;;;;3.42;2.90;;;;;;;17.64;38.17;93294.31;4977064;28;20045;-92
2022/04/14 03:11:38;;;;;;;3.55;2.83;;;;;;;17.63;38.16;93292.06;4994940;28;20441;-93
2022/04/14 03:14:03;;;;;;;3.22;2.90;;;;;;;17.63;37.88;93292.78;4962278;28;20881;-89
2022/04/14 03:16:28;;;;;;;3.10;2.80;;;;;;;17.64;38.35;93290.81;4977963;28;20044;-91
2022/04/14 03:18:54;;;;;;;5.25;3.67;;;;;;;17.63;38.17;93294.78;4994608;28;20038;-90
2022/04/14 03:21:19;;;;;;;3.45;2.83;;;;;;;17.61;38.04;93289.81;5003055;28;20042;-91
2022/04/14 03:23:45;;;;;;;4.55;2.78;;;;;;;17.63;37.87;93295.53;5014640;28;20255;-91
2022/04/14 03:26:10;;;;;;;3.33;2.70;;;;;;;17.61;37.79;93295.28;4981702;28;20048;-90
2022/04/14 03:28:37;;;;;;;3.13;2.70;;;;;;;17.62;37.70;93291.31;4981053;28;20049;-88
2022/04/14 03:31:03;;;;;;;3.25;2.95;;;;;;;17.62;38.09;93298.75;4981536;28;20050;-88
2022/04/14 03:33:28;;;;;;;3.20;2.90;;;;;;;17.62;37.96;93296.03;4988913;28;20189;-88
2022/04/14 03:35:54;;;;;;;4.18;3.05;;;;;;;17.61;38.00;93297.28;4962280;28;20030;-89
2022/04/14 03:38:19;;;;;;;3.72;3.13;;;;;;;17.60;37.69;93293.81;4976843;28;20030;-88
2022/04/14 03:40:44;;;;;;;3.85;2.88;;;;;;;17.63;38.11;93297.53;4985583;28;20033;-87
2022/04/14 03:43:10;;;;;;;4.00;2.45;;;;;;;17.62;38.36;93302.25;5014533;28;20037;-92
2022/04/14 03:45:35;;;;;;;3.20;2.90;;;;;;;17.61;38.17;93303.50;4978895;28;20042;-88
2022/04/14 03:48:01;;;;;;;6.05;2.70;;;;;;;17.61;38.03;93302.75;4978073;28;20129;-89
2022/04/14 03:50:26;;;;;;;5.00;2.50;;;;;;;17.61;37.92;93297.28;4977707;28;20030;-88
2022/04/14 03:52:52;;;;;;;3.05;2.53;;;;;;;17.62;37.88;93304.97;4978359;28;20037;-89
2022/04/14 03:55:17;;;;;;;5.05;3.80;;;;;;;17.53;37.61;93301.81;4961734;28;20034;-88
2022/04/14 03:57:42;;;;;;;19.13;4.22;;;;;;;17.52;37.55;93308.53;4962965;28;20041;-89
2022/04/14 04:00:08;;;;;;;11.18;4.10;;;;;;;17.55;37.42;93307.50;4998139;28;20046;-89
2022/04/14 04:02:37;;;;;;;10.90;3.70;;;;;;;17.55;37.10;93308.25;4982142;28;20045;-92
2022/04/14 04:05:03;;;;;;;7.47;4.10;;;;;;;17.51;37.28;93313.25;4977682;28;20033;-92
2022/04/14 04:07:29;;;;;;;12.45;4.30;;;;;;;17.55;37.74;93308.25;4963876;28;20103;-92
2022/04/14 04:09:54;;;;;;;7.22;3.92;;;;;;;17.56;37.28;93311.72;4982369;28;20033;-92
2022/04/14 04:12:21;;;;;;;11.95;4.18;;;;;;;17.52;37.03;93311.28;4981642;28;20060;-92
2022/04/14 04:14:48;;;;;;;10.52;4.60;;;;;;;17.52;37.18;93303.06;4999806;28;20029;-91
2022/04/14 04:17:15;;;;;;;6.13;4.47;;;;;;;17.51;37.62;93313.25;4980846;28;20041;-90
2022/04/14 04:19:42;;;;;;;5.60;4.00;;;;;;;17.54;37.75;93322.44;4978086;28;20064;-93
2022/04/14 04:22:08;;;;;;;5.70;3.78;;;;;;;17.55;37.27;93321.91;4986826;28;20046;-91
2022/04/14 04:24:33;;;;;;;13.75;5.00;;;;;;;17.54;37.63;93317.69;4996987;28;20403;-91
2022/04/14 04:26:58;;;;;;;62.70;38.63;;;;;;;17.55;38.42;93321.16;5005231;28;20030;-87
2022/04/14 04:29:24;;;;;;;120.82;93.30;;;;;;;17.57;38.10;93326.88;4996856;28;20392;-87
2022/04/14 04:31:49;;;;;;;89.97;74.90;;;;;;;17.59;38.39;93329.84;4981581;28;20408;-89
2022/04/14 04:34:24;;;;;;;58.20;23.30;;;;;;;17.58;38.59;93325.63;4978415;28;20374;-90
2022/04/14 04:36:49;;;;;;;43.00;20.77;;;;;;;17.63;38.04;93333.06;5002372;28;20029;-89
2022/04/14 04:39:15;;;;;;;44.35;25.88;;;;;;;17.67;38.01;93330.81;4989940;28;20104;-92
2022/04/14 04:41:41;;;;;;;25.13;17.38;;;;;;;17.66;37.67;93329.34;4999070;28;20046;-91
2022/04/14 04:44:06;;;;;;;28.27;18.42;;;;;;;17.69;38.02;93331.06;4981366;28;20038;-91
2022/04/14 04:46:32;;;;;;;35.65;15.70;;;;;;;17.77;38.00;93337.44;4981491;28;20554;-87
2022/04/14 04:48:57;;;;;;;106.95;50.40;;;;;;;17.75;37.63;93340.69;4991770;28;20045;-85
2022/04/14 04:51:24;;;;;;;37.42;12.52;;;;;;;17.75;38.03;93345.44;4974681;28;20041;-88
2022/04/14 04:53:50;;;;;;;47.08;11.13;;;;;;;17.59;37.59;93348.97;4997734;28;20042;-91
2022/04/14 04:56:18;;;;;;;61.75;12.07;;;;;;;17.55;37.07;93359.44;5013515;28;20065;-83
2022/04/14 04:58:43;;;;;;;34.47;10.00;;;;;;;17.44;36.98;93361.00;4968439;28;20056;-87
2022/04/14 05:01:09;;;;;;;24.30;7.93;;;;;;;17.37;37.35;93361.53;4970525;28;20514;-88
2022/04/14 05:03:34;;;;;;;25.25;7.13;;;;;;;17.34;36.92;93361.78;4964603;28;20038;-89
2022/04/14 05:06:00;;;;;;;35.72;8.77;;;;;;;17.29;37.02;93357.84;5007095;28;20038;-86
2022/04/14 05:08:25;;;;;;;24.15;7.97;;;;;;;17.25;37.35;93362.09;4995283;28;20389;-84
2022/04/14 05:10:51;;;;;;;19.58;8.40;;;;;;;17.19;37.33;93362.13;4990134;28;20038;-84
2022/04/14 05:13:17;;;;;;;30.13;8.30;;;;;;;17.20;37.16;93366.34;4990756;28;20042;-82
2022/04/14 05:15:42;;;;;;;70.80;17.48;;;;;;;17.22;37.32;93363.09;4997158;28;20505;-86
2022/04/14 05:18:08;;;;;;;29.52;10.20;;;;;;;17.15;37.48;93367.09;4981068;28;20053;-87
2022/04/14 05:20:36;;;;;;;29.83;9.48;;;;;;;17.12;37.23;93371.56;4983678;28;20045;-88
2022/04/14 05:23:02;;;;;;;39.50;9.55;;;;;;;17.09;37.55;93375.34;4983004;28;20037;-89
2022/04/14 05:25:28;;;;;;;36.22;9.43;;;;;;;17.08;37.72;93370.38;4960656;28;20131;-86
2022/04/14 05:27:55;;;;;;;48.28;10.35;;;;;;;17.10;37.49;93365.88;4988628;28;20401;-88
2022/04/14 05:30:20;;;;;;;39.95;11.50;;;;;;;17.06;37.88;93368.13;5008030;28;20516;-88
2022/04/14 05:32:46;;;;;;;50.38;10.43;;;;;;;17.04;38.13;93373.38;5008424;28;20092;-87
2022/04/14 05:35:11;;;;;;;34.80;9.35;;;;;;;17.03;38.29;93380.06;4993548;28;20524;-85
2022/04/14 05:37:37;;;;;;;21.55;9.30;;;;;;;16.98;38.19;93367.16;4975066;28;20038;-84
2022/04/14 05:40:03;;;;;;;44.60;10.13;;;;;;;17.01;39.03;93371.63;5026507;28;20042;-85
2022/04/14 05:42:29;;;;;;;117.63;20.90;;;;;;;17.01;38.43;93368.91;5006332;28;20041;-88
2022/04/14 05:44:54;;;;;;;56.17;12.13;;;;;;;16.99;38.51;93370.66;5025592;28;20048;-87
2022/04/14 05:47:23;;;;;;;32.45;9.57;;;;;;;16.95;38.75;93373.63;4975754;28;20501;-86
2022/04/14 05:49:50;;;;;;;41.55;9.48;;;;;;;16.93;38.68;93369.91;4989700;28;20038;-86
2022/04/14 05:52:15;;;;;;;41.08;8.98;;;;;;;16.90;38.91;93374.38;4988439;28;20100;-89
2022/04/14 05:54:41;;;;;;;44.05;9.68;;;;;;;16.92;38.54;93371.16;4967462;28;20038;-87
2022/04/14 05:57:06;;;;;;;68.50;11.20;;;;;;;16.90;38.93;93373.66;4974448;28;20038;-89
2022/04/14 05:59:32;;;;;;;54.85;9.73;;;;;;;16.93;39.07;93367.94;4992521;28;20042;-88
2022/04/14 06:01:57;;;;;;;38.88;9.65;;;;;;;16.87;39.04;93363.75;5010626;28;20033;-87
2022/04/14 06:04:23;;;;;;;38.45;7.97;;;;;;;16.86;39.11;93373.19;4961765;28;20107;-86
2022/04/14 06:06:48;;;;;;;62.95;9.70;;;;;;;16.99;39.32;93365.94;5010141;28;20038;-88
2022/04/14 06:09:14;;;;;;;48.80;8.65;;;;;;;16.93;39.24;93365.19;4979106;28;20068;-90
2022/04/14 06:11:39;;;;;;;48.47;15.18;;;;;;;16.94;39.55;93368.66;4977684;28;20500;-87
2022/04/14 06:14:05;;;;;;;23.27;11.15;;;;;;;17.00;39.65;93364.69;4989035;28;20049;-85
2022/04/14 06:16:31;;;;;;;168.77;77.20;;;;;;;17.06;39.30;93368.13;5006905;28;20569;-93
2022/04/14 06:18:57;;;;;;;13.63;6.50;;;;;;;17.08;39.66;93362.94;4985357;28;20029;-90
2022/04/14 06:21:22;;;;;;;25.60;7.97;;;;;;;17.12;39.60;93366.09;4990953;28;20055;-84
2022/04/14 06:23:49;;;;;;;13.80;6.05;;;;;;;17.15;39.57;93356.16;5000880;28;20683;-86
2022/04/14 06:26:15;;;;;;;18.08;7.18;;;;;;;17.18;39.43;93368.81;4973488;28;20488;-84
2022/04/14 06:28:42;;;;;;;26.17;8.88;;;;;;;17.13;39.64;93358.66;4993230;28;20096;-89
2022/04/14 06:31:08;;;;;;;34.17;9.40;;;;;;;17.18;39.62;93363.38;4976567;28;20050;-88
2022/04/14 06:33:33;;;;;;;30.25;8.02;;;;;;;17.16;39.83;93365.84;4997209;28;20547;-90
2022/04/14 06:36:00;;;;;;;10.05;6.30;;;;;;;17.19;40.06;93370.31;4993692;28;20041;-90
2022/04/14 06:38:27;;;;;;;20.95;7.15;;;;;;;17.18;40.42;93368.81;4976604;28;20065;-89
2022/04/14 06:40:53;;;;;;;32.05;11.20;;;;;;;17.19;40.63;93372.31;4966010;28;20034;-89
2022/04/14 06:43:19;;;;;;;32.47;15.35;;;;;;;17.19;40.43;93378.50;4973336;28;20664;-88
2022/04/14 06:45:45;;;;;;;43.75;14.25;;;;;;;17.26;40.23;93383.44;4986268;28;20041;-88
2022/04/14 06:48:11;;;;;;;26.98;10.55;;;;;;;17.24;40.34;93379.72;5014136;28;20377;-91
2022/04/14 06:50:37;;;;;;;25.27;9.95;;;;;;;17.26;40.08;93380.72;4993605;28;20836;-90
2022/04/14 06:53:02;;;;;;;34.03;9.50;;;;;;;17.26;40.28;93380.72;4982245;28;20133;-88
2022/04/14 06:55:28;;;;;;;50.80;11.10;;;;;;;17.31;40.13;93368.28;4997183;28;20448;-89
2022/04/14 06:57:56;;;;;;;63.22;11.55;;;;;;;17.32;40.59;93372.50;4991695;28;20030;-89
2022/04/14 07:00:22;;;;;;;57.70;13.25;;;;;;;17.37;40.57;93375.19;4973521;28;20046;-88
2022/04/14 07:02:50;;;;;;;54.35;12.48;;;;;;;17.40;40.08;93368.72;4974771;28;20057;-89
2022/04/14 07:05:16;;;;;;;62.35;17.80;;;;;;;17.44;40.81;93374.66;4981551;28;20054;-91
2022/04/14 07:07:42;;;;;;;68.60;18.35;;;;;;;17.49;40.24;93378.63;4994152;28;20175;-89
2022/04/14 07:10:17;;;;;;;82.93;20.40;;;;;;;17.53;40.17;93381.09;4977233;28;20044;-91
2022/04/14 07:12:43;;;;;;;71.00;21.58;;;;;;;17.56;39.87;93380.78;5017135;28;20046;-92
2022/04/14 07:15:09;;;;;;;84.60;33.10;;;;;;;17.60;39.79;93392.22;5013062;28;20579;-94
2022/04/14 07:17:34;;;;;;;131.82;56.38;;;;;;;17.65;39.77;93383.25;4975316;28;20531;-92
2022/04/14 07:20:04;;;;;;;118.32;51.63;;;;;;;17.65;39.52;93388.00;4966271;28;20038;-92
2022/04/14 07:22:31;;;;;;;118.30;54.10;;;;;;;17.69;39.23;93391.19;4992029;28;20517;-92
2022/04/14 07:24:58;;;;;;;104.20;48.67;;;;;;;17.71;39.15;93391.44;4994746;28;20139;-92
2022/04/14 07:27:23;;;;;;;106.70;43.90;;;;;;;17.74;38.95;93395.91;4991103;28;20540;-89
2022/04/14 07:29:49;;;;;;;93.55;41.85;;;;;;;17.79;39.27;93395.09;4998086;28;20057;-90
2022/04/14 07:32:14;;;;;;;110.03;40.85;;;;;;;17.77;39.06;93392.88;4984952;28;20230;-88
2022/04/14 07:34:40;;;;;;;91.97;38.30;;;;;;;17.78;38.82;93399.81;4989129;28;20097;-87
2022/04/14 07:37:05;;;;;;;144.70;46.03;;;;;;;17.80;39.06;93394.59;4989135;28;20037;-87
2022/04/14 07:39:31;;;;;;;125.13;39.45;;;;;;;17.84;38.84;93394.31;4993612;28;20116;-89
2022/04/14 07:41:58;;;;;;;143.45;44.50;;;;;;;17.85;39.05;93387.63;4988303;28;20552;-89
2022/04/14 07:44:23;;;;;;;126.00;43.45;;;;;;;17.86;39.09;93394.56;4969003;28;20358;-88
2022/04/14 07:46:50;;;;;;;104.45;35.95;;;;;;;17.87;38.87;93395.31;4989248;28;20487;-91
2022/04/14 07:49:15;;;;;;;112.93;37.95;;;;;;;17.86;38.61;93397.31;4993569;28;20109;-88
2022/04/14 07:51:41;;;;;;;118.32;35.85;;;;;;;17.91;39.01;93396.53;4995398;28;20041;-88
2022/04/14 07:54:06;;;;;;;100.47;34.47;;;;;;;17.93;38.71;93396.75;4982615;28;20041;-90
2022/04/14 07:56:33;;;;;;;96.75;30.88;;;;;;;17.96;38.90;93405.94;4973251;28;20306;-89
2022/04/14 07:58:59;;;;;;;94.50;31.30;;;;;;;17.96;38.64;93397.75;4979478;28;20046;-92
2022/04/14 08:01:26;;;;;;;85.32;28.70;;;;;;;17.93;38.31;93407.72;4982191;28;20439;-93
2022/04/14 08:03:51;;;;;;;92.00;29.90;;;;;;;17.96;38.82;93405.94;4999291;28;20095;-93
2022/04/14 08:06:17;;;;;;;97.47;29.55;;;;;;;18.00;39.22;93409.13;4982979;28;20128;-91
2022/04/14 08:08:43;;;;;;;91.68;28.20;;;;;;;18.00;38.70;93409.88;4995375;28;20527;-89
2022/04/14 08:11:09;;;;;;;83.93;26.42;;;;;;;18.00;38.74;93414.59;4982296;28;20042;-92
2022/04/14 08:13:37;;;;;;;84.95;26.35;;;;;;;18.02;38.94;93412.84;4980597;28;20044;-94
2022/04/14 08:16:06;;;;;;;62.42;24.02;;;;;;;18.02;38.60;93415.59;4974903;28;20222;-94
2022/04/14 08:18:37;;;;;;;55.45;24.15;;;;;;;18.02;38.75;93415.59;4977453;28;20484;-92
2022/04/14 08:21:03;;;;;;;59.05;25.92;;;;;;;18.04;38.59;93420.53;4970322;28;20034;-90
2022/04/14 08:23:28;;;;;;;52.60;23.30;;;;;;;18.04;38.63;93413.09;4987929;28;20042;-90
2022/04/14 08:25:54;;;;;;;56.58;22.77;;;;;;;18.05;38.65;93424.78;4987411;28;20026;-88
2022/04/14 08:28:21;;;;;;;55.65;21.75;;;;;;;18.09;38.73;93420.50;4985190;28;20038;-89
2022/04/14 08:30:46;;;;;;;47.30;21.60;;;;;;;18.06;38.45;93418.03;4986163;28;20026;-91
2022/04/14 08:33:12;;;;;;;51.42;22.63;;;;;;;18.05;38.98;93420.03;4974252;28;20115;-89
2022/04/14 08:35:37;;;;;;;38.67;19.40;;;;;;;18.07;39.01;93416.81;4974758;28;20045;-89
2022/04/14 08:38:06;;;;;;;39.63;18.88;;;;;;;18.07;38.84;93430.47;4990162;28;20061;-90
2022/04/14 08:40:36;;;;;;;44.20;19.27;;;;;;;18.07;38.51;93428.47;4976795;28;20045;-90
2022/04/14 08:43:06;;;;;;;43.67;19.90;;;;;;;18.07;39.00;93435.94;4977539;28;20453;-90
2022/04/14 08:45:36;;;;;;;44.28;19.77;;;;;;;18.06;39.17;93434.47;4973576;28;20046;-87
2022/04/14 08:48:03;;;;;;;53.03;20.03;;;;;;;18.05;39.50;93436.44;4988380;28;20044;-89
2022/04/14 08:50:29;;;;;;;59.28;19.65;;;;;;;18.09;39.22;93433.44;5009323;28;20481;-87
2022/04/14 08:52:54;;;;;;;43.25;20.98;;;;;;;18.08;39.26;93429.22;4993045;28;20048;-90
2022/04/14 08:55:20;;;;;;;54.92;24.42;;;;;;;18.11;38.71;93433.69;4975661;28;20111;-89
2022/04/14 08:57:45;;;;;;;71.50;34.72;;;;;;;18.16;39.02;93435.66;5006130;28;20033;-90
2022/04/14 09:00:13;;;;;;;78.30;31.98;;;;;;;18.21;38.84;93431.38;4977432;28;20042;-87
2022/04/14 09:02:39;;;;;;;93.90;35.33;;;;;;;18.20;38.85;93438.81;4962477;28;20037;-89
2022/04/14 09:05:05;;;;;;;103.72;38.78;;;;;;;18.25;38.84;93440.03;4992148;28;20038;-89
2022/04/14 09:07:31;;;;;;;96.22;40.00;;;;;;;18.25;39.54;93440.78;4977362;28;20046;-89
2022/04/14 09:09:56;;;;;;;89.28;36.83;;;;;;;18.26;39.45;93433.31;4970738;28;20049;-88
2022/04/14 09:12:22;;;;;;;89.85;37.05;;;;;;;18.26;38.94;93433.31;4980607;28;20042;-87
2022/04/14 09:14:48;;;;;;;148.45;58.22;;;;;;;18.27;39.41;93432.06;4973666;28;20038;-88
2022/04/14 09:17:13;;;;;;;178.13;75.45;;;;;;;18.27;39.19;93440.28;5000284;28;20038;-89
2022/04/14 09:19:41;;;;;;;143.43;51.65;;;;;;;18.29;39.22;93438.53;5011786;28;20064;-89
2022/04/14 09:22:13;;;;;;;126.57;50.97;;;;;;;18.29;39.34;93438.53;4968093;28;20121;-91
2022/04/14 09:24:48;;;;;;;115.28;46.30;;;;;;;18.32;39.33;93437.50;4988370;28;20133;-91
2022/04/14 09:27:27;;;;;;;140.80;49.78;;;;;;;18.33;39.44;93428.06;4995289;28;20065;-92
2022/04/14 09:29:54;;;;;;;147.50;51.13;;;;;;;18.32;39.64;93423.09;4968210;28;20501;-89
2022/04/14 09:32:38;;;;;;;138.05;56.47;;;;;;;18.31;39.59;93421.59;5005730;28;20046;-89
2022/04/14 09:35:18;;;;;;;185.48;64.60;;;;;;;18.31;39.73;93430.56;4972068;28;20527;-90
2022/04/14 09:37:44;;;;;;;104.85;44.90;;;;;;;18.34;39.69;93437.00;4971841;28;20041;-92
2022/04/14 09:40:10;;;;;;;104.38;44.28;;;;;;;18.33;39.63;93421.84;4995275;28;20732;-90
2022/04/14 09:42:36;;;;;;;107.43;44.63;;;;;;;18.34;39.83;93431.53;4993891;28;20097;-89
2022/04/14 09:45:25;;;;;;;160.13;64.45;;;;;;;18.32;39.78;93428.56;4980005;28;20052;-89
2022/04/14 09:47:52;;;;;;;183.27;62.05;;;;;;;18.35;39.75;93431.03;4987985;28;20042;-91
2022/04/14 09:50:34;;;;;;;148.15;58.35;;;;;;;18.34;39.61;93437.75;4976177;28;20088;-90
2022/04/14 09:53:07;;;;;;;114.45;49.55;;;;;;;18.35;39.94;93430.28;4982258;28;20050;-93
2022/04/14 09:55:35;;;;;;;166.27;54.40;;;;;;;18.36;39.81;93415.34;4967818;28;20409;-89
2022/04/14 09:58:19;;;;;;;126.78;51.70;;;;;;;18.35;39.68;93420.06;4983947;28;20072;-90
2022/04/14 10:00:48;;;;;;;152.48;56.25;;;;;;;18.36;39.83;93426.28;4973737;28;20515;-90
2022/04/14 10:03:21;;;;;;;199.38;65.28;;;;;;;18.36;39.89;93429.78;4975934;28;20096;-89
2022/04/14 10:05:49;;;;;;;147.35;54.58;;;;;;;18.36;39.94;93426.28;4957380;28;20440;-89
2022/04/14 10:08:14;;;;;;;118.22;44.13;;;;;;;18.36;40.05;93418.81;4958300;28;20052;-89
2022/04/14 10:10:41;;;;;;;153.50;52.10;;;;;;;18.38;40.53;93421.06;4959561;28;20400;-87
2022/04/14 10:13:14;;;;;;;112.18;43.88;;;;;;;18.36;40.06;93426.28;4958386;28;20046;-89
2022/04/14 10:15:47;;;;;;;127.88;43.45;;;;;;;18.35;39.76;93414.59;4974351;28;20515;-88
2022/04/14 10:18:16;;;;;;;111.53;41.63;;;;;;;18.36;40.45;93410.63;4992575;28;20060;-89
2022/04/14 10:20:43;;;;;;;88.88;37.70;;;;;;;18.36;39.95;93413.34;4991310;28;20441;-88
2022/04/14 10:23:10;;;;;;;98.50;38.92;;;;;;;18.37;40.48;93412.09;4970463;28;20037;-88
2022/04/14 10:25:38;;;;;;;68.55;33.42;;;;;;;18.36;40.13;93407.88;4995019;28;20064;-89
2022/04/14 10:28:15;;;;;;;81.05;34.38;;;;;;;18.34;40.07;93417.84;4968012;28;20045;-89
2022/04/14 10:30:45;;;;;;;71.97;32.35;;;;;;;18.36;40.26;93407.88;4988713;28;20033;-89
2022/04/14 10:33:12;;;;;;;75.72;32.70;;;;;;;18.36;40.66;93418.81;4985518;28;20091;-88
2022/04/14 10:35:37;;;;;;;68.78;32.53;;;;;;;18.36;40.39;93415.34;4974379;28;20045;-90
2022/04/14 10:38:13;;;;;;;86.15;35.70;;;;;;;18.36;39.76;93421.56;4958717;28;20544;-89
2022/04/14 10:40:47;;;;;;;132.20;33.65;;;;;;;18.34;40.47;93421.31;4982198;28;20065;-89
2022/04/14 10:43:13;;;;;;;280.35;43.53;;;;;;;18.37;40.83;93417.56;4968912;28;20085;-90
2022/04/14 10:45:55;;;;;;;249.40;43.20;;;;;;;18.36;40.47;93412.59;4960312;28;20038;-89
2022/04/14 10:48:30;;;;;;;349.52;51.22;;;;;;;18.37;40.64;93408.63;4989838;28;20129;-90
2022/04/14 10:51:20;;;;;;;330.73;48.42;;;;;;;18.38;40.46;93412.84;4992390;28;20030;-91
2022/04/14 10:54:04;;;;;;;340.90;50.78;;;;;;;18.38;40.55;93404.63;4991553;28;20049;-90
2022/04/14 10:56:44;;;;;;;408.67;66.00;;;;;;;18.37;41.21;93414.09;4976840;28;20034;-93
2022/04/14 10:59:12;;;;;;;323.85;52.35;;;;;;;18.38;40.79;93419.06;4991876;28;20057;-91
2022/04/14 11:01:47;;;;;;;205.00;37.38;;;;;;;18.37;40.98;93414.09;4979532;28;20441;-91
2022/04/14 11:04:37;;;;;;;203.82;40.78;;;;;;;18.38;41.11;93421.06;5008973;28;20041;-88
2022/04/14 11:07:08;;;;;;;186.48;36.60;;;;;;;18.37;41.06;93419.56;5000851;28;20037;-89
2022/04/14 11:09:42;;;;;;;393.33;52.55;;;;;;;18.40;41.83;93424.03;5026644;28;20045;-89
2022/04/14 11:12:17;;;;;;;533.95;66.82;;;;;;;18.41;41.52;93412.53;5010768;28;20049;-90
2022/04/14 11:15:02;;;;;;;794.17;103.03;;;;;;;18.40;41.79;93421.28;4995427;28;20044;-90
2022/04/14 11:17:31;;;;;;;417.33;54.50;;;;;;;18.40;41.83;93416.53;4979602;28;20049;-92
2022/04/14 11:20:15;;;;;;;400.52;58.65;;;;;;;18.40;41.56;93416.53;5016164;28;20040;-90
2022/04/14 11:23:03;;;;;;;413.15;56.03;;;;;;;18.41;41.74;93418.00;4999717;28;20042;-91